Time;durP1;ratioP1;P1;durP2;ratioP2;P2;SDS_P1;SDS_P2;PMS_P1;PMS_P2;Temp;Humidity;BMP_temperature;BMP_pressure;BME280_temperature;BME280_humidity;BME280_pressure;Samples;Min_cycle;Max_cycle;Signal;HPM_P1;HPM_P2
2023/12/25 00:01:34;;;;;;;0.50;0.20;;;;;;;31.84;84.21;100265.72;10489166;28;20055;-85
2023/12/25 00:06:36;;;;;;;0.10;0.10;;;;;;;31.23;83.50;100272.69;10474120;28;20127;-85
2023/12/25 00:11:37;;;;;;;0.00;0.00;;;;;;;32.26;82.43;100275.00;10476478;28;20045;-84
2023/12/25 00:16:40;;;;;;;0.10;0.10;;;;;;;31.44;84.98;100283.59;10478479;28;20072;-84
2023/12/25 00:21:42;;;;;;;0.00;0.00;;;;;;;31.57;85.98;100267.59;10496463;28;20048;-84
2023/12/25 00:26:44;;;;;;;0.00;0.00;;;;;;;30.51;88.24;100265.22;10477464;28;20139;-84
2023/12/25 00:31:47;;;;;;;0.20;0.20;;;;;;;31.14;85.74;100265.38;10496255;28;20044;-84
2023/12/25 00:36:49;;;;;;;0.00;0.00;;;;;;;30.62;87.99;100281.31;10487082;28;20139;-84
2023/12/25 00:41:50;;;;;;;6.03;0.30;;;;;;;31.23;86.86;100275.38;10479841;28;20056;-85
2023/12/25 00:46:52;;;;;;;0.00;0.00;;;;;;;30.62;89.45;100262.72;10462347;28;20068;-85
2023/12/25 00:51:54;;;;;;;0.20;0.20;;;;;;;31.16;85.50;100276.75;10495698;28;20434;-85
2023/12/25 00:56:58;;;;;;;0.32;0.30;;;;;;;32.21;84.38;100285.13;10478791;28;20098;-85
2023/12/25 01:02:00;;;;;;;7.30;0.95;;;;;;;31.87;84.77;100287.63;10493785;28;20052;-85
2023/12/25 01:07:02;;;;;;;0.05;0.05;;;;;;;31.34;86.27;100298.53;10478699;28;20068;-85
2023/12/25 01:12:04;;;;;;;0.25;0.20;;;;;;;32.26;87.32;100333.63;10478831;28;20044;-84
2023/12/25 01:17:06;;;;;;;0.30;0.10;;;;;;;32.42;92.07;100305.81;10477300;28;20044;-84
2023/12/25 01:22:08;;;;;;;0.00;0.00;;;;;;;29.34;100.00;100319.66;10494260;28;20499;-84
2023/12/25 01:27:10;;;;;;;0.00;0.00;;;;;;;26.21;100.00;100341.13;10521939;28;20055;-85
2023/12/25 01:32:12;;;;;;;0.28;0.25;;;;;;;25.04;100.00;100334.94;10482798;28;20037;-84
2023/12/25 01:37:14;;;;;;;0.00;0.00;;;;;;;26.04;100.00;100345.41;10475558;28;20040;-84
2023/12/25 01:42:17;;;;;;;0.00;0.00;;;;;;;26.66;100.00;100331.81;10496987;28;20072;-86
2023/12/25 01:47:20;;;;;;;0.00;0.00;;;;;;;27.53;100.00;100322.94;10486197;28;20082;-86
2023/12/25 01:52:23;;;;;;;0.00;0.00;;;;;;;27.54;100.00;100324.66;10474616;28;20072;-87
2023/12/25 01:57:26;;;;;;;0.00;0.00;;;;;;;27.34;100.00;100341.56;10490228;28;20071;-86
2023/12/25 02:02:28;;;;;;;0.00;0.00;;;;;;;26.70;100.00;100354.53;10480002;28;20105;-86
2023/12/25 02:07:31;;;;;;;0.00;0.00;;;;;;;27.72;100.00;100343.13;10478632;28;20131;-86
2023/12/25 02:12:34;;;;;;;0.10;0.10;;;;;;;28.00;100.00;100344.22;10477589;28;20045;-86
2023/12/25 02:17:36;;;;;;;0.00;0.00;;;;;;;28.27;100.00;100344.50;10460251;28;20471;-86
2023/12/25 02:22:40;;;;;;;0.00;0.00;;;;;;;29.46;100.00;100343.69;10476672;28;20041;-86
2023/12/25 02:27:42;;;;;;;5.50;0.52;;;;;;;29.84;96.98;100345.72;10472323;28;20487;-86
2023/12/25 02:32:44;;;;;;;2.72;0.82;;;;;;;29.23;96.12;100340.63;10514512;28;20117;-85
2023/12/25 02:37:47;;;;;;;0.00;0.00;;;;;;;29.31;96.92;100359.63;10474860;28;20569;-86
2023/12/25 02:42:49;;;;;;;0.00;0.00;;;;;;;29.69;92.69;100350.22;10472314;28;20424;-86
2023/12/25 02:47:51;;;;;;;0.00;0.00;;;;;;;29.38;91.45;100365.41;10474943;28;20052;-86
2023/12/25 02:52:53;;;;;;;0.00;0.00;;;;;;;29.04;92.90;100376.25;10482587;28;20051;-85
2023/12/25 02:57:55;;;;;;;0.00;0.00;;;;;;;29.30;92.33;100368.53;10499980;28;20072;-85
2023/12/25 03:02:57;;;;;;;5.63;0.63;;;;;;;29.71;90.41;100365.09;10473753;28;20154;-86
2023/12/25 03:07:59;;;;;;;0.00;0.00;;;;;;;29.02;91.58;100361.38;10483287;28;20573;-86
2023/12/25 03:13:01;;;;;;;0.22;0.22;;;;;;;-146.30;100.00;58188.94;10489651;28;20136;-86
2023/12/25 03:18:04;;;;;;;0.00;0.00;;;;;;;-146.30;100.00;58188.94;10469952;28;20071;-86
2023/12/25 03:23:06;;;;;;;0.00;0.00;;;;;;;-146.30;100.00;58188.94;10482092;28;20044;-85
2023/12/25 03:28:08;;;;;;;0.55;0.25;;;;;;;-146.30;100.00;58188.94;10477604;28;20044;-87
2023/12/25 03:33:10;;;;;;;1.02;0.65;;;;;;;-146.30;100.00;58188.94;10483840;28;20082;-86
2023/12/25 03:38:13;;;;;;;0.30;0.30;;;;;;;-146.30;100.00;58188.94;10478989;28;20087;-86
2023/12/25 03:43:15;;;;;;;0.00;0.00;;;;;;;-146.30;100.00;58188.94;10479803;28;20136;-86
2023/12/25 03:48:16;;;;;;;2.20;0.75;;;;;;;-146.30;100.00;58188.94;10490008;28;20044;-86
2023/12/25 03:53:18;;;;;;;0.00;0.00;;;;;;;30.85;91.33;100340.03;10500676;28;20074;-87
2023/12/25 03:58:20;;;;;;;0.00;0.00;;;;;;;31.12;92.88;100405.63;10483016;28;20044;-87
2023/12/25 04:03:22;;;;;;;0.00;0.00;;;;;;;30.69;95.26;100393.38;10465514;28;20399;-86
2023/12/25 04:08:24;;;;;;;0.10;0.10;;;;;;;30.56;93.18;100417.31;10517234;28;20072;-86
2023/12/25 04:13:26;;;;;;;0.08;0.00;;;;;;;31.59;91.96;100409.44;10498291;28;20388;-86
2023/12/25 04:18:28;;;;;;;0.10;0.00;;;;;;;32.32;90.94;100406.94;10463520;28;20033;-86
2023/12/25 04:23:30;;;;;;;2.20;0.73;;;;;;;32.65;87.46;100410.72;10464299;28;20072;-86
2023/12/25 04:28:31;;;;;;;0.45;0.32;;;;;;;31.21;87.23;100394.34;10484302;28;20044;-86
2023/12/25 04:33:33;;;;;;;0.00;0.00;;;;;;;31.50;87.43;100415.41;10471915;28;20408;-86
2023/12/25 04:38:37;;;;;;;0.52;0.25;;;;;;;30.82;89.87;100406.72;10472689;28;20036;-86
2023/12/25 04:43:39;;;;;;;0.00;0.00;;;;;;;30.47;91.69;100388.63;10480371;28;20135;-86
2023/12/25 04:48:42;;;;;;;0.90;0.20;;;;;;;30.72;89.70;100406.50;10475247;28;20056;-86
2023/12/25 04:53:44;;;;;;;0.20;0.00;;;;;;;30.55;89.81;100386.34;10476181;28;20047;-87
2023/12/25 04:58:46;;;;;;;0.65;0.15;;;;;;;31.39;87.48;100394.88;10479822;28;20037;-86
2023/12/25 05:03:47;;;;;;;0.68;0.20;;;;;;;32.03;84.26;100395.72;10494028;28;20044;-85
2023/12/25 05:08:50;;;;;;;0.10;0.10;;;;;;;32.49;82.42;100391.50;10493065;28;20048;-86
2023/12/25 05:13:52;;;;;;;0.45;0.20;;;;;;;32.21;82.34;100390.88;10469639;28;20098;-86
2023/12/25 05:18:54;;;;;;;0.25;0.20;;;;;;;31.58;83.58;100402.41;10472724;28;20099;-86
2023/12/25 05:23:56;;;;;;;0.22;0.17;;;;;;;31.94;82.73;100403.44;10493672;28;20078;-87
2023/12/25 05:28:57;;;;;;;3.92;0.88;;;;;;;32.36;81.38;100402.22;10460573;28;20400;-85
2023/12/25 05:33:59;;;;;;;0.10;0.10;;;;;;;32.59;81.03;100403.19;10485751;28;20053;-86
2023/12/25 05:39:01;;;;;;;2.60;0.40;;;;;;;31.91;82.43;100408.97;10491864;28;20055;-86
2023/12/25 05:44:14;;;;;;;0.30;0.10;;;;;;;32.15;81.87;100400.16;10511884;28;20049;-86
2023/12/25 05:49:16;;;;;;;1.00;0.20;;;;;;;33.55;78.52;100411.06;10452026;28;20042;-85
2023/12/25 05:54:18;;;;;;;0.47;0.47;;;;;;;33.06;78.85;100409.38;10473136;28;20041;-85
2023/12/25 05:59:20;;;;;;;0.00;0.00;;;;;;;32.93;79.48;100421.16;10496016;28;20079;-86
2023/12/25 06:04:22;;;;;;;0.00;0.00;;;;;;;31.52;80.27;100418.81;10504564;28;20610;-86
2023/12/25 06:09:25;;;;;;;0.60;0.13;;;;;;;31.16;83.32;100433.72;10476713;28;20078;-85
2023/12/25 06:14:27;;;;;;;0.25;0.25;;;;;;;31.40;82.88;100427.66;10476227;28;20106;-85
2023/12/25 06:19:31;;;;;;;0.00;0.00;;;;;;;30.17;85.59;100426.88;10476682;28;20036;-85
2023/12/25 06:24:33;;;;;;;6.70;0.10;;;;;;;30.19;83.92;100431.13;10477363;28;20072;-86
2023/12/25 06:29:35;;;;;;;0.05;0.00;;;;;;;31.26;80.81;100439.25;10493618;28;20086;-85
2023/12/25 06:34:37;;;;;;;0.70;0.70;;;;;;;30.93;80.62;100441.44;10474192;28;20048;-86
2023/12/25 06:39:39;;;;;;;0.00;0.00;;;;;;;31.66;79.65;100440.97;10475069;28;20047;-85
2023/12/25 06:44:41;;;;;;;0.30;0.17;;;;;;;32.38;79.81;100438.50;10475070;28;20051;-85
2023/12/25 06:49:42;;;;;;;0.70;0.17;;;;;;;33.05;79.87;100437.06;10491459;28;20048;-84
2023/12/25 06:54:45;;;;;;;0.13;0.13;;;;;;;32.07;80.67;100450.47;10474966;28;20093;-85
2023/12/25 06:59:46;;;;;;;0.00;0.00;;;;;;;31.85;82.02;100441.38;10471187;28;20043;-85
2023/12/25 07:04:49;;;;;;;0.00;0.00;;;;;;;34.14;78.16;100440.16;10481112;28;20109;-84
2023/12/25 07:09:51;;;;;;;0.00;0.00;;;;;;;33.48;77.71;100443.56;10479748;28;20052;-85
2023/12/25 07:14:53;;;;;;;0.40;0.15;;;;;;;33.79;77.00;100451.84;10492947;28;20131;-85
2023/12/25 07:19:55;;;;;;;0.05;0.05;;;;;;;33.55;76.81;100454.63;10491158;28;20449;-84
2023/12/25 07:25:02;;;;;;;0.20;0.13;;;;;;;34.14;76.41;100461.53;10494634;28;20045;-84
2023/12/25 07:30:06;;;;;;;0.57;0.30;;;;;;;32.23;77.90;100467.09;10495935;28;20506;-85
2023/12/25 07:35:08;;;;;;;0.10;0.10;;;;;;;33.89;76.12;100483.19;10491781;28;20132;-85
2023/12/25 07:40:11;;;;;;;0.00;0.00;;;;;;;32.70;78.35;100479.72;10493516;28;20048;-84
2023/12/25 07:45:13;;;;;;;0.00;0.00;;;;;;;32.92;77.64;100483.47;10498533;28;20658;-85
2023/12/25 07:50:15;;;;;;;0.00;0.00;;;;;;;32.36;77.28;100487.50;10498755;28;20068;-85
2023/12/25 07:55:17;;;;;;;0.00;0.00;;;;;;;33.03;76.86;100496.84;10500247;28;20117;-85
2023/12/25 08:00:19;;;;;;;0.00;0.00;;;;;;;32.25;77.19;100506.94;10464604;28;20048;-84
2023/12/25 08:05:21;;;;;;;0.05;0.05;;;;;;;31.55;76.69;100509.09;10482545;28;20138;-85
2023/12/25 08:10:23;;;;;;;0.00;0.00;;;;;;;32.88;75.39;100531.69;10488239;28;20491;-85
2023/12/25 08:15:26;;;;;;;0.00;0.00;;;;;;;31.72;76.50;100531.09;10501085;28;20052;-85
2023/12/25 08:20:27;;;;;;;0.00;0.00;;;;;;;31.82;76.55;100540.16;10472109;28;20097;-85
2023/12/25 08:25:29;;;;;;;0.00;0.00;;;;;;;33.03;74.39;100537.72;10480652;28;20461;-85
2023/12/25 08:30:31;;;;;;;0.20;0.17;;;;;;;32.08;74.09;100548.09;10480738;28;20085;-84
2023/12/25 08:35:33;;;;;;;0.00;0.00;;;;;;;32.21;74.66;100543.63;10482834;28;20040;-84
2023/12/25 08:40:35;;;;;;;0.00;0.00;;;;;;;32.00;75.67;100555.78;10497534;28;20041;-85
2023/12/25 08:45:37;;;;;;;0.03;0.00;;;;;;;31.24;76.72;100563.56;10478058;28;20101;-84
2023/12/25 08:50:38;;;;;;;0.00;0.00;;;;;;;32.18;74.12;100553.63;10481619;28;20444;-84
2023/12/25 08:55:40;;;;;;;0.98;0.40;;;;;;;31.10;72.51;100557.38;10472235;28;20056;-84
2023/12/25 09:00:42;;;;;;;0.00;0.00;;;;;;;33.16;71.72;100567.03;10479348;28;20052;-84
2023/12/25 09:05:44;;;;;;;0.20;0.13;;;;;;;32.77;72.71;100581.47;10494538;28;20044;-85
2023/12/25 09:10:45;;;;;;;0.00;0.00;;;;;;;32.10;72.58;100592.31;10469149;28;20048;-85
2023/12/25 09:15:47;;;;;;;0.25;0.22;;;;;;;32.64;72.01;100570.84;10490733;28;20071;-85
2023/12/25 09:20:49;;;;;;;0.05;0.05;;;;;;;30.86;74.26;100581.09;10490435;28;20043;-85
2023/12/25 09:25:51;;;;;;;0.30;0.30;;;;;;;33.26;73.13;100601.00;10494299;28;20109;-85
2023/12/25 09:30:52;;;;;;;0.10;0.03;;;;;;;33.19;70.73;100606.81;10493627;28;20121;-84
2023/12/25 09:35:55;;;;;;;0.00;0.00;;;;;;;33.52;70.13;100615.94;10476575;28;20044;-83
2023/12/25 09:40:57;;;;;;;0.00;0.00;;;;;;;33.19;70.95;100616.66;10477517;28;20491;-82
2023/12/25 09:46:02;;;;;;;0.00;0.00;;;;;;;33.38;70.71;100625.00;10505357;28;20155;-83
2023/12/25 09:51:09;;;;;;;0.00;0.00;;;;;;;33.21;71.04;100639.59;10484411;28;20496;-83
2023/12/25 09:56:12;;;;;;;0.13;0.13;;;;;;;34.08;70.53;100632.25;10485621;28;20044;-82
2023/12/25 10:01:17;;;;;;;0.05;0.05;;;;;;;32.48;73.80;100619.94;10473723;28;20071;-82
2023/12/25 10:06:20;;;;;;;0.00;0.00;;;;;;;32.86;74.60;100628.81;10477420;28;20553;-83
2023/12/25 10:11:23;;;;;;;0.00;0.00;;;;;;;31.63;74.44;100613.28;10513656;28;20070;-82
2023/12/25 10:16:25;;;;;;;0.00;0.00;;;;;;;32.49;73.41;100611.00;10509906;28;20040;-82
2023/12/25 10:21:26;;;;;;;0.00;0.00;;;;;;;30.69;75.87;100609.63;10495313;28;20036;-82
2023/12/25 10:26:28;;;;;;;0.00;0.00;;;;;;;30.86;75.28;100615.66;10485666;28;20052;-82
2023/12/25 10:31:30;;;;;;;0.00;0.00;;;;;;;30.13;75.81;100624.59;10478823;28;20040;-82
2023/12/25 10:36:32;;;;;;;0.00;0.00;;;;;;;30.16;78.65;100619.09;10489096;28;20127;-82
2023/12/25 10:41:38;;;;;;;0.10;0.10;;;;;;;31.55;76.83;100615.59;10485743;28;20391;-82
2023/12/25 10:46:42;;;;;;;0.03;0.03;;;;;;;30.63;76.04;100612.66;10493035;28;20388;-82
2023/12/25 10:51:46;;;;;;;0.00;0.00;;;;;;;31.31;75.72;100608.28;10459079;28;20155;-83
2023/12/25 10:56:49;;;;;;;2.92;0.30;;;;;;;30.86;77.54;100621.81;10488400;28;20045;-81
2023/12/25 11:01:54;;;;;;;0.30;0.20;;;;;;;31.18;75.24;100607.41;10491751;28;20107;-81
2023/12/25 11:06:57;;;;;;;0.10;0.10;;;;;;;32.56;73.65;100606.91;10498152;28;20461;-82
2023/12/25 11:11:59;;;;;;;0.08;0.08;;;;;;;32.80;74.06;100600.81;10474072;28;20507;-81
2023/12/25 11:17:01;;;;;;;0.00;0.00;;;;;;;33.14;74.15;100598.31;10492964;28;20052;-82
2023/12/25 11:22:28;;;;;;;0.00;0.00;;;;;;;32.89;72.11;100608.09;10481247;28;20057;-81
2023/12/25 11:27:31;;;;;;;0.80;0.30;;;;;;;31.21;74.09;100607.22;10475038;28;20064;-84
2023/12/25 11:32:35;;;;;;;0.00;0.00;;;;;;;31.67;74.48;100613.94;10496388;28;20406;-83
2023/12/25 11:37:38;;;;;;;0.00;0.00;;;;;;;31.07;73.94;100593.94;10477925;28;20040;-82
2023/12/25 11:42:41;;;;;;;0.00;0.00;;;;;;;30.67;73.84;100608.00;10476948;28;20495;-82
2023/12/25 11:47:44;;;;;;;0.00;0.00;;;;;;;31.82;73.56;100596.06;10499348;28;20053;-82
2023/12/25 11:52:54;;;;;;;0.00;0.00;;;;;;;30.33;74.04;100605.63;10480763;28;20052;-81
2023/12/25 11:57:57;;;;;;;0.43;0.28;;;;;;;29.95;74.69;100614.16;10511094;28;20407;-82
2023/12/25 12:03:00;;;;;;;0.00;0.00;;;;;;;32.77;72.67;100617.03;10462134;28;20045;-82
2023/12/25 12:08:02;;;;;;;2.33;0.80;;;;;;;31.60;71.91;100624.16;10481029;28;20404;-82
2023/12/25 12:13:05;;;;;;;0.00;0.00;;;;;;;32.25;72.91;100622.44;10490281;28;20052;-82
2023/12/25 12:18:07;;;;;;;0.00;0.00;;;;;;;30.96;74.92;100608.78;10488712;28;20127;-82
2023/12/25 12:23:13;;;;;;;0.20;0.10;;;;;;;31.33;72.41;100602.88;10496842;28;20039;-82
2023/12/25 12:28:17;;;;;;;0.10;0.05;;;;;;;31.33;71.77;100611.72;10482222;28;20044;-81
2023/12/25 12:33:22;;;;;;;0.00;0.00;;;;;;;32.78;70.85;100600.06;10476379;28;20110;-82
2023/12/25 12:38:25;;;;;;;1.13;0.15;;;;;;;31.31;71.26;100613.63;10491705;28;20041;-81
2023/12/25 12:43:27;;;;;;;0.00;0.00;;;;;;;31.86;71.57;100618.03;10519037;28;20044;-83
2023/12/25 12:48:30;;;;;;;0.00;0.00;;;;;;;32.09;70.26;100616.44;10481197;28;20131;-82
2023/12/25 12:53:33;;;;;;;0.35;0.35;;;;;;;30.72;71.47;100627.16;10484057;28;20048;-82
2023/12/25 12:58:35;;;;;;;0.00;0.00;;;;;;;32.22;70.13;100624.44;10480754;28;20045;-82
2023/12/25 13:03:38;;;;;;;0.00;0.00;;;;;;;31.49;70.85;100608.03;10482450;28;20041;-82
2023/12/25 13:08:41;;;;;;;0.00;0.00;;;;;;;32.67;70.28;100606.13;10481333;28;20040;-81
2023/12/25 13:13:44;;;;;;;0.00;0.00;;;;;;;30.17;70.70;100611.03;10461396;28;20557;-81
2023/12/25 13:18:47;;;;;;;0.20;0.15;;;;;;;32.52;69.54;100605.41;10490307;28;20050;-83
2023/12/25 13:23:50;;;;;;;0.30;0.30;;;;;;;31.53;71.98;100611.34;10488499;28;20545;-82
2023/12/25 13:28:53;;;;;;;0.00;0.00;;;;;;;32.65;71.22;100605.38;10494234;28;20045;-82
2023/12/25 13:33:56;;;;;;;3.42;1.55;;;;;;;31.73;71.82;100610.03;10488157;28;20525;-82
2023/12/25 13:38:59;;;;;;;0.20;0.00;;;;;;;30.23;73.70;100609.81;10455633;28;20052;-81
2023/12/25 13:44:03;;;;;;;0.00;0.00;;;;;;;31.71;71.59;100604.81;10484376;28;20032;-82
2023/12/25 13:49:07;;;;;;;0.00;0.00;;;;;;;31.62;72.26;100606.22;10486098;28;20132;-81
2023/12/25 13:54:10;;;;;;;0.00;0.00;;;;;;;31.50;72.16;100612.41;10479394;28;20139;-81
2023/12/25 13:59:12;;;;;;;0.00;0.00;;;;;;;32.53;70.21;100607.13;10470891;28;20107;-81
2023/12/25 14:04:15;;;;;;;0.20;0.05;;;;;;;31.48;70.54;100632.94;10477931;28;20068;-81
2023/12/25 14:09:18;;;;;;;0.00;0.00;;;;;;;32.62;68.89;100626.09;10474132;28;20029;-80
2023/12/25 14:14:23;;;;;;;0.00;0.00;;;;;;;32.78;69.56;100640.06;10476473;28;20463;-81
2023/12/25 14:19:26;;;;;;;0.00;0.00;;;;;;;33.29;68.22;100619.47;10477557;28;20127;-81
2023/12/25 14:24:35;;;;;;;0.00;0.00;;;;;;;31.12;71.93;100597.16;10491203;28;20079;-81
2023/12/25 14:29:38;;;;;;;1.35;0.03;;;;;;;31.51;71.23;100608.78;10495617;28;20044;-81
2023/12/25 14:34:41;;;;;;;0.70;0.35;;;;;;;32.82;69.12;100617.53;10485934;28;20048;-80
2023/12/25 14:39:44;;;;;;;0.20;0.05;;;;;;;31.92;69.44;100615.78;10471474;28;20048;-81
2023/12/25 14:44:46;;;;;;;0.00;0.00;;;;;;;30.36;71.00;100639.97;10477341;28;20054;-81
2023/12/25 14:49:49;;;;;;;0.00;0.00;;;;;;;32.14;69.96;100642.75;10482790;28;20483;-81
2023/12/25 14:54:52;;;;;;;0.00;0.00;;;;;;;32.20;69.13;100650.31;10490439;28;20052;-80
2023/12/25 14:59:54;;;;;;;0.00;0.00;;;;;;;32.90;68.63;100644.50;10492232;28;20052;-81
2023/12/25 15:05:00;;;;;;;0.00;0.00;;;;;;;32.45;68.80;100641.47;10495662;28;20048;-80
2023/12/25 15:10:02;;;;;;;0.00;0.00;;;;;;;31.11;71.47;100638.03;10481954;28;20040;-81
2023/12/25 15:15:07;;;;;;;0.00;0.00;;;;;;;31.46;69.78;100640.19;10505063;28;20052;-80
2023/12/25 15:20:10;;;;;;;0.00;0.00;;;;;;;31.56;69.79;100643.94;10462956;28;20059;-80
2023/12/25 15:25:12;;;;;;;0.00;0.00;;;;;;;32.95;67.39;100638.84;10484298;28;20048;-80
2023/12/25 15:30:15;;;;;;;0.10;0.10;;;;;;;31.27;68.13;100633.41;10485786;28;20044;-81
2023/12/25 15:35:17;;;;;;;0.50;0.25;;;;;;;31.46;69.17;100624.22;10487071;28;20048;-80
2023/12/25 15:40:19;;;;;;;0.00;0.00;;;;;;;31.30;69.79;100627.03;10483168;28;20039;-80
2023/12/25 15:45:21;;;;;;;0.00;0.00;;;;;;;32.43;66.94;100638.94;10486980;28;20411;-80
2023/12/25 15:50:23;;;;;;;0.00;0.00;;;;;;;32.88;67.57;100640.25;10487795;28;20079;-80
2023/12/25 15:55:25;;;;;;;0.00;0.00;;;;;;;29.80;70.30;100644.25;10487977;28;20060;-80
2023/12/25 16:00:28;;;;;;;0.00;0.00;;;;;;;31.18;69.24;100623.38;10504146;28;20158;-81
2023/12/25 16:05:30;;;;;;;0.00;0.00;;;;;;;30.82;71.42;100617.66;10520751;28;20105;-80
2023/12/25 16:10:32;;;;;;;3.45;0.40;;;;;;;30.60;70.07;100622.63;10476242;28;20123;-81
2023/12/25 16:15:36;;;;;;;0.00;0.00;;;;;;;31.15;70.94;100623.59;10463955;28;20535;-81
2023/12/25 16:20:40;;;;;;;1.77;0.20;;;;;;;30.80;72.65;100634.66;10489431;28;20135;-81
2023/12/25 16:25:43;;;;;;;0.00;0.00;;;;;;;30.78;70.29;100636.56;10482521;28;20054;-81
2023/12/25 16:30:45;;;;;;;0.00;0.00;;;;;;;31.25;72.25;100623.81;10517316;28;20461;-81
2023/12/25 16:35:47;;;;;;;0.05;0.05;;;;;;;31.70;70.96;100634.19;10482980;28;20049;-81
2023/12/25 16:40:49;;;;;;;0.10;0.10;;;;;;;30.63;73.54;100639.25;10512806;28;20109;-80
2023/12/25 16:45:52;;;;;;;0.00;0.00;;;;;;;32.22;72.45;100619.97;10506999;28;20101;-81
2023/12/25 16:50:55;;;;;;;0.17;0.13;;;;;;;31.53;74.19;100612.22;10482965;28;20055;-81
2023/12/25 16:55:57;;;;;;;0.00;0.00;;;;;;;31.22;75.95;100619.56;10477719;28;20048;-80
2023/12/25 17:00:59;;;;;;;0.25;0.15;;;;;;;32.59;74.25;100601.34;10492450;28;20138;-81
2023/12/25 17:06:01;;;;;;;0.28;0.20;;;;;;;31.85;74.60;100601.19;10500760;28;20052;-81
2023/12/25 17:11:03;;;;;;;0.10;0.05;;;;;;;32.27;73.87;100595.66;10476598;28;20076;-81
2023/12/25 17:16:05;;;;;;;0.00;0.00;;;;;;;33.18;71.41;100602.44;10476371;28;20091;-83
2023/12/25 17:21:08;;;;;;;0.50;0.45;;;;;;;32.95;71.11;100609.47;10502468;28;20051;-80
2023/12/25 17:26:10;;;;;;;0.38;0.25;;;;;;;32.05;74.82;100606.97;10476417;28;20036;-83
2023/12/25 17:31:12;;;;;;;7.13;1.10;;;;;;;32.18;74.53;100596.25;10487568;28;20094;-83
2023/12/25 17:36:14;;;;;;;0.75;0.32;;;;;;;28.39;83.05;100605.19;10454569;28;20135;-82
2023/12/25 17:41:17;;;;;;;2.28;0.38;;;;;;;30.00;84.26;100597.94;10509553;28;20036;-82
2023/12/25 17:46:19;;;;;;;0.15;0.10;;;;;;;30.40;85.48;100598.13;10475498;28;20056;-81
2023/12/25 17:51:21;;;;;;;0.05;0.05;;;;;;;29.33;88.23;100588.56;10496395;28;20086;-81
2023/12/25 17:56:23;;;;;;;0.45;0.32;;;;;;;29.02;90.66;100600.88;10493328;28;20044;-81
2023/12/25 18:01:25;;;;;;;1.08;0.55;;;;;;;29.48;89.16;100596.56;10481262;28;20048;-82
2023/12/25 18:06:27;;;;;;;1.88;0.88;;;;;;;28.57;92.26;100591.88;10477504;28;20094;-83
2023/12/25 18:11:29;;;;;;;0.10;0.10;;;;;;;28.44;93.59;100597.00;10495504;28;20441;-83
2023/12/25 18:16:31;;;;;;;0.00;0.00;;;;;;;28.81;94.04;100597.66;10499506;28;20036;-83
2023/12/25 18:21:33;;;;;;;0.00;0.00;;;;;;;27.50;99.59;100592.97;10479381;28;20035;-83
2023/12/25 18:26:35;;;;;;;0.22;0.22;;;;;;;29.65;92.83;100607.03;10510923;28;20074;-83
2023/12/25 18:31:38;;;;;;;0.25;0.20;;;;;;;28.46;94.73;100603.06;10495160;28;20101;-83
2023/12/25 18:36:40;;;;;;;0.10;0.10;;;;;;;27.18;100.00;100586.59;10493968;28;20040;-83
2023/12/25 18:41:42;;;;;;;1.45;0.85;;;;;;;28.05;96.15;100588.41;10490611;28;20047;-84
2023/12/25 18:46:44;;;;;;;0.00;0.00;;;;;;;28.83;91.15;100577.19;10468966;28;20052;-84
2023/12/25 18:51:46;;;;;;;0.22;0.10;;;;;;;29.62;88.18;100575.34;10488023;28;20066;-83
2023/12/25 18:56:48;;;;;;;0.00;0.00;;;;;;;29.56;88.89;100573.91;10511177;28;20054;-83
2023/12/25 19:01:50;;;;;;;0.10;0.03;;;;;;;30.36;87.62;100560.25;10481488;28;20496;-82
2023/12/25 19:06:56;;;;;;;0.00;0.00;;;;;;;28.13;93.80;100565.06;10476719;28;20102;-83
2023/12/25 19:11:58;;;;;;;0.30;0.22;;;;;;;28.21;92.41;100539.94;10498384;28;20568;-82
2023/12/25 19:17:00;;;;;;;0.00;0.00;;;;;;;28.31;92.50;100535.88;10476553;28;20060;-83
2023/12/25 19:22:04;;;;;;;0.05;0.05;;;;;;;28.35;91.98;100524.16;10476220;28;20567;-83
2023/12/25 19:27:08;;;;;;;0.00;0.00;;;;;;;29.46;88.54;100524.13;10474759;28;20778;-82
2023/12/25 19:32:10;;;;;;;0.00;0.00;;;;;;;28.61;90.53;100517.41;10483352;28;20575;-82
2023/12/25 19:37:12;;;;;;;0.00;0.00;;;;;;;28.65;90.87;100512.78;10505609;28;20083;-83
2023/12/25 19:42:14;;;;;;;0.38;0.20;;;;;;;29.49;90.42;100502.72;10526682;28;20669;-82
2023/12/25 19:47:16;;;;;;;0.00;0.00;;;;;;;28.91;89.45;100510.50;10482805;28;20146;-83
2023/12/25 19:52:17;;;;;;;0.45;0.15;;;;;;;28.56;91.75;100498.28;10485902;28;20124;-83
2023/12/25 19:57:19;;;;;;;0.00;0.00;;;;;;;29.17;90.74;100497.50;10495932;28;20048;-81
2023/12/25 20:02:21;;;;;;;0.20;0.20;;;;;;;29.93;87.67;100496.53;10505164;28;20040;-81
2023/12/25 20:07:23;;;;;;;0.00;0.00;;;;;;;30.38;87.66;100491.94;10468294;28;20410;-82
2023/12/25 20:12:25;;;;;;;0.00;0.00;;;;;;;30.37;85.24;100489.38;10486254;28;20135;-83
2023/12/25 21:05:53;;;;;;;0.65;0.40;;;;;;;27.76;100.00;100373.75;10172506;29;20512;-85
2023/12/25 21:18:46;;;;;;;0.15;0.10;;;;;;;41.89;100.00;99574.06;10248553;28;20050;-86
2023/12/25 21:23:49;;;;;;;0.00;0.00;;;;;;;47.82;96.29;98382.66;10303429;28;20138;-86
2023/12/25 21:28:51;;;;;;;0.00;0.00;;;;;;;31.37;96.96;98491.63;10466390;28;20484;-87
2023/12/25 21:33:53;;;;;;;0.00;0.00;;;;;;;30.61;100.00;98817.84;10476008;28;20467;-85
2023/12/25 21:38:55;;;;;;;0.00;0.00;;;;;;;29.62;100.00;100315.25;10476267;28;20044;-87
2023/12/25 21:43:57;;;;;;;0.00;0.00;;;;;;;29.56;100.00;100369.56;10474508;28;20037;-87
2023/12/25 21:48:59;;;;;;;0.00;0.00;;;;;;;29.31;100.00;100378.19;10459324;28;20055;-88
2023/12/25 21:54:04;;;;;;;0.00;0.00;;;;;;;29.58;100.00;100380.94;10475838;28;20048;-87
2023/12/25 21:59:06;;;;;;;0.00;0.00;;;;;;;28.89;100.00;100379.81;10475295;28;20083;-86
2023/12/25 22:04:08;;;;;;;0.10;0.10;;;;;;;27.04;100.00;100373.13;10472927;28;20098;-87
2023/12/25 22:09:10;;;;;;;0.00;0.00;;;;;;;26.69;100.00;100367.84;10472905;28;20044;-88
2023/12/25 22:14:12;;;;;;;0.00;0.00;;;;;;;27.12;100.00;100354.22;10454875;28;20468;-87
2023/12/25 22:19:14;;;;;;;0.00;0.00;;;;;;;26.57;100.00;100350.81;10473245;28;20889;-88
2023/12/25 22:24:16;;;;;;;0.00;0.00;;;;;;;27.46;100.00;100353.31;10455740;28;20499;-88
2023/12/25 22:29:18;;;;;;;0.00;0.00;;;;;;;26.75;100.00;100357.81;10475464;28;20150;-87
2023/12/25 22:34:20;;;;;;;0.00;0.00;;;;;;;27.66;100.00;100357.53;10482407;28;20136;-87
2023/12/25 22:39:25;;;;;;;0.28;0.25;;;;;;;26.89;100.00;100354.50;10485193;28;20135;-88
2023/12/25 22:44:27;;;;;;;0.10;0.00;;;;;;;26.67;100.00;100345.91;10456116;28;20048;-87
2023/12/25 22:49:31;;;;;;;0.00;0.00;;;;;;;25.81;100.00;100359.66;10474699;28;20136;-88
2023/12/25 22:54:34;;;;;;;0.00;0.00;;;;;;;25.84;100.00;100359.53;10457209;28;20043;-89
2023/12/25 22:59:37;;;;;;;0.00;0.00;;;;;;;25.75;100.00;100354.69;10474613;28;20097;-88
2023/12/25 23:04:39;;;;;;;0.00;0.00;;;;;;;24.84;100.00;100375.31;10463218;28;20051;-88
2023/12/25 23:09:42;;;;;;;0.00;0.00;;;;;;;25.49;100.00;100365.50;10480100;28;20055;-88
2023/12/25 23:14:44;;;;;;;0.00;0.00;;;;;;;24.76;100.00;100359.84;10485372;28;20506;-87
2023/12/25 23:19:46;;;;;;;0.20;0.00;;;;;;;25.27;100.00;100360.31;10490714;28;20040;-88
2023/12/25 23:24:48;;;;;;;0.00;0.00;;;;;;;26.28;100.00;100359.22;10484979;28;20052;-88
2023/12/25 23:29:51;;;;;;;0.00;0.00;;;;;;;25.84;100.00;100364.81;10471393;28;20381;-87
2023/12/25 23:34:53;;;;;;;0.00;0.00;;;;;;;26.13;100.00;100362.59;10483225;28;20044;-89
2023/12/25 23:39:55;;;;;;;0.00;0.00;;;;;;;25.10;100.00;100358.38;10481367;28;20057;-87
2023/12/25 23:44:57;;;;;;;0.08;0.00;;;;;;;25.50;100.00;100363.72;10468568;28;20465;-88
2023/12/25 23:49:59;;;;;;;0.00;0.00;;;;;;;25.30;100.00;100354.03;10503716;28;20032;-88
2023/12/25 23:55:01;;;;;;;0.10;0.10;;;;;;;24.50;100.00;100353.00;10468713;28;20486;-87
